sensor_id;sensor_type;location;lat;lon;timestamp;temperature;humidity
18611;DHT22;9435;52.122;5.502;2023-03-01T00:02:20;-1.50;99.90
18611;DHT22;9435;52.122;5.502;2023-03-01T00:04:47;-1.50;99.90
18611;DHT22;9435;52.122;5.502;2023-03-01T00:07:14;-1.50;99.90
18611;DHT22;9435;52.122;5.502;2023-03-01T00:09:41;-1.50;99.90
18611;DHT22;9435;52.122;5.502;2023-03-01T00:12:13;-1.50;99.90
18611;DHT22;9435;52.122;5.502;2023-03-01T00:14:40;-1.40;99.90
18611;DHT22;9435;52.122;5.502;2023-03-01T00:17:08;-1.40;99.90
18611;DHT22;9435;52.122;5.502;2023-03-01T00:19:35;-1.40;99.90
18611;DHT22;9435;52.122;5.502;2023-03-01T00:22:02;-1.40;99.90
18611;DHT22;9435;52.122;5.502;2023-03-01T00:24:29;-1.50;99.90
18611;DHT22;9435;52.122;5.502;2023-03-01T00:26:56;-1.40;99.90
18611;DHT22;9435;52.122;5.502;2023-03-01T00:29:25;-1.50;99.90
18611;DHT22;9435;52.122;5.502;2023-03-01T00:31:52;-1.50;99.90
18611;DHT22;9435;52.122;5.502;2023-03-01T00:34:19;-1.50;99.90
18611;DHT22;9435;52.122;5.502;2023-03-01T00:36:46;-1.50;99.90
18611;DHT22;9435;52.122;5.502;2023-03-01T00:39:16;-1.50;99.90
18611;DHT22;9435;52.122;5.502;2023-03-01T00:41:43;-1.50;99.90
18611;DHT22;9435;52.122;5.502;2023-03-01T00:44:11;-1.50;99.90
18611;DHT22;9435;52.122;5.502;2023-03-01T00:46:39;-1.50;99.90
18611;DHT22;9435;52.122;5.502;2023-03-01T00:49:06;-1.50;99.90
18611;DHT22;9435;52.122;5.502;2023-03-01T00:51:34;-1.50;99.90
18611;DHT22;9435;52.122;5.502;2023-03-01T00:54:02;-1.50;99.90
18611;DHT22;9435;52.122;5.502;2023-03-01T00:56:30;-1.50;99.90
18611;DHT22;9435;52.122;5.502;2023-03-01T00:58:57;-1.60;99.90
18611;DHT22;9435;52.122;5.502;2023-03-01T01:01:27;-1.60;99.90
18611;DHT22;9435;52.122;5.502;2023-03-01T01:03:59;-1.60;99.90
18611;DHT22;9435;52.122;5.502;2023-03-01T01:06:27;-1.60;99.90
18611;DHT22;9435;52.122;5.502;2023-03-01T01:08:55;-1.60;99.90
18611;DHT22;9435;52.122;5.502;2023-03-01T01:11:24;-1.60;99.90
18611;DHT22;9435;52.122;5.502;2023-03-01T01:13:52;-1.60;99.90
18611;DHT22;9435;52.122;5.502;2023-03-01T01:16:21;-1.60;99.90
18611;DHT22;9435;52.122;5.502;2023-03-01T01:18:49;-1.60;99.90
18611;DHT22;9435;52.122;5.502;2023-03-01T01:21:21;-1.60;99.90
18611;DHT22;9435;52.122;5.502;2023-03-01T01:23:48;-1.60;99.90
18611;DHT22;9435;52.122;5.502;2023-03-01T01:26:18;-1.60;99.90
18611;DHT22;9435;52.122;5.502;2023-03-01T01:28:45;-1.70;99.90
18611;DHT22;9435;52.122;5.502;2023-03-01T01:31:13;-1.70;99.90
18611;DHT22;9435;52.122;5.502;2023-03-01T01:33:40;-1.70;99.90
18611;DHT22;9435;52.122;5.502;2023-03-01T01:36:08;-1.70;99.90
18611;DHT22;9435;52.122;5.502;2023-03-01T01:38:38;-1.70;99.90
18611;DHT22;9435;52.122;5.502;2023-03-01T01:41:05;-1.70;99.90
18611;DHT22;9435;52.122;5.502;2023-03-01T01:43:35;-1.70;99.90
18611;DHT22;9435;52.122;5.502;2023-03-01T01:46:04;-1.70;99.90
18611;DHT22;9435;52.122;5.502;2023-03-01T01:48:37;-1.70;99.90
18611;DHT22;9435;52.122;5.502;2023-03-01T01:51:10;-1.70;99.90
18611;DHT22;9435;52.122;5.502;2023-03-01T01:53:40;-1.70;99.90
18611;DHT22;9435;52.122;5.502;2023-03-01T01:56:08;-1.80;99.90
18611;DHT22;9435;52.122;5.502;2023-03-01T01:58:38;-1.80;99.90
18611;DHT22;9435;52.122;5.502;2023-03-01T02:01:05;-1.80;99.90
18611;DHT22;9435;52.122;5.502;2023-03-01T02:03:34;-1.80;99.90
18611;DHT22;9435;52.122;5.502;2023-03-01T02:06:06;-1.80;99.90
18611;DHT22;9435;52.122;5.502;2023-03-01T02:08:36;-1.90;99.90
18611;DHT22;9435;52.122;5.502;2023-03-01T02:11:06;-1.90;99.90
18611;DHT22;9435;52.122;5.502;2023-03-01T02:13:35;-1.90;99.90
18611;DHT22;9435;52.122;5.502;2023-03-01T02:16:03;-2.00;99.90
18611;DHT22;9435;52.122;5.502;2023-03-01T02:18:30;-2.00;99.90
18611;DHT22;9435;52.122;5.502;2023-03-01T02:21:10;-2.00;99.90
18611;DHT22;9435;52.122;5.502;2023-03-01T02:23:41;-2.00;99.90
18611;DHT22;9435;52.122;5.502;2023-03-01T02:26:15;-1.90;99.90
18611;DHT22;9435;52.122;5.502;2023-03-01T02:28:45;-2.00;99.90
18611;DHT22;9435;52.122;5.502;2023-03-01T02:31:16;-1.90;99.90
18611;DHT22;9435;52.122;5.502;2023-03-01T02:34:02;-2.00;99.90
18611;DHT22;9435;52.122;5.502;2023-03-01T02:36:34;-2.00;99.90
18611;DHT22;9435;52.122;5.502;2023-03-01T02:39:03;-2.00;99.90
18611;DHT22;9435;52.122;5.502;2023-03-01T02:41:34;-2.00;99.90
18611;DHT22;9435;52.122;5.502;2023-03-01T02:44:04;-2.00;99.90
18611;DHT22;9435;52.122;5.502;2023-03-01T02:46:31;-2.00;99.90
18611;DHT22;9435;52.122;5.502;2023-03-01T02:48:59;-2.10;99.90
18611;DHT22;9435;52.122;5.502;2023-03-01T02:51:41;-2.10;99.90
18611;DHT22;9435;52.122;5.502;2023-03-01T02:54:15;-2.10;99.90
18611;DHT22;9435;52.122;5.502;2023-03-01T02:56:46;-2.20;99.90
18611;DHT22;9435;52.122;5.502;2023-03-01T02:59:16;-2.20;99.90
18611;DHT22;9435;52.122;5.502;2023-03-01T03:01:45;-2.20;99.90
18611;DHT22;9435;52.122;5.502;2023-03-01T03:04:15;-2.20;99.90
18611;DHT22;9435;52.122;5.502;2023-03-01T03:06:43;-2.20;99.90
18611;DHT22;9435;52.122;5.502;2023-03-01T03:09:11;-2.20;99.90
18611;DHT22;9435;52.122;5.502;2023-03-01T03:11:39;-2.20;99.90
18611;DHT22;9435;52.122;5.502;2023-03-01T03:14:07;-2.30;99.90
18611;DHT22;9435;52.122;5.502;2023-03-01T03:16:41;-2.20;99.90
18611;DHT22;9435;52.122;5.502;2023-03-01T03:19:08;-2.30;99.90
18611;DHT22;9435;52.122;5.502;2023-03-01T03:21:36;-2.30;99.90
18611;DHT22;9435;52.122;5.502;2023-03-01T03:24:03;-2.30;99.90
18611;DHT22;9435;52.122;5.502;2023-03-01T03:26:31;-2.40;99.90
18611;DHT22;9435;52.122;5.502;2023-03-01T03:28:58;-2.50;99.90
18611;DHT22;9435;52.122;5.502;2023-03-01T03:31:26;-2.40;99.90
18611;DHT22;9435;52.122;5.502;2023-03-01T03:33:55;-2.40;99.90
18611;DHT22;9435;52.122;5.502;2023-03-01T03:36:23;-2.40;99.90
18611;DHT22;9435;52.122;5.502;2023-03-01T03:38:51;-2.40;99.90
18611;DHT22;9435;52.122;5.502;2023-03-01T03:41:18;-2.40;99.90
18611;DHT22;9435;52.122;5.502;2023-03-01T03:43:45;-2.40;99.90
18611;DHT22;9435;52.122;5.502;2023-03-01T03:46:12;-2.40;99.90
18611;DHT22;9435;52.122;5.502;2023-03-01T03:48:41;-2.40;99.90
18611;DHT22;9435;52.122;5.502;2023-03-01T03:51:12;-2.40;99.90
18611;DHT22;9435;52.122;5.502;2023-03-01T03:53:39;-2.40;99.90
18611;DHT22;9435;52.122;5.502;2023-03-01T03:56:07;-2.50;99.90
18611;DHT22;9435;52.122;5.502;2023-03-01T03:58:34;-2.60;99.90
18611;DHT22;9435;52.122;5.502;2023-03-01T04:01:01;-2.60;99.90
18611;DHT22;9435;52.122;5.502;2023-03-01T04:03:30;-2.60;99.90
18611;DHT22;9435;52.122;5.502;2023-03-01T04:05:58;-2.60;99.90
18611;DHT22;9435;52.122;5.502;2023-03-01T04:08:27;-2.60;99.90
18611;DHT22;9435;52.122;5.502;2023-03-01T04:10:58;-2.70;99.90
18611;DHT22;9435;52.122;5.502;2023-03-01T04:13:26;-2.60;99.90
18611;DHT22;9435;52.122;5.502;2023-03-01T04:15:54;-2.60;99.90
18611;DHT22;9435;52.122;5.502;2023-03-01T04:18:22;-2.70;99.90
18611;DHT22;9435;52.122;5.502;2023-03-01T04:20:50;-2.70;99.90
18611;DHT22;9435;52.122;5.502;2023-03-01T04:23:21;-2.70;99.90
18611;DHT22;9435;52.122;5.502;2023-03-01T04:25:51;-2.60;99.90
18611;DHT22;9435;52.122;5.502;2023-03-01T04:28:21;-2.80;99.90
18611;DHT22;9435;52.122;5.502;2023-03-01T04:30:50;-2.80;99.90
18611;DHT22;9435;52.122;5.502;2023-03-01T04:33:18;-2.80;99.90
18611;DHT22;9435;52.122;5.502;2023-03-01T04:35:45;-2.90;99.90
18611;DHT22;9435;52.122;5.502;2023-03-01T04:38:15;-2.90;99.90
18611;DHT22;9435;52.122;5.502;2023-03-01T04:40:42;-2.90;99.90
18611;DHT22;9435;52.122;5.502;2023-03-01T04:43:11;-2.90;99.90
18611;DHT22;9435;52.122;5.502;2023-03-01T04:45:40;-2.90;99.90
18611;DHT22;9435;52.122;5.502;2023-03-01T04:48:07;-2.90;99.90
18611;DHT22;9435;52.122;5.502;2023-03-01T04:50:35;-3.00;99.90
18611;DHT22;9435;52.122;5.502;2023-03-01T04:53:02;-3.10;99.90
18611;DHT22;9435;52.122;5.502;2023-03-01T04:55:29;-3.30;99.90
18611;DHT22;9435;52.122;5.502;2023-03-01T04:57:57;-3.30;99.90
18611;DHT22;9435;52.122;5.502;2023-03-01T05:00:25;-3.40;99.90
18611;DHT22;9435;52.122;5.502;2023-03-01T05:02:55;-3.50;99.90
18611;DHT22;9435;52.122;5.502;2023-03-01T05:05:25;-3.40;99.90
18611;DHT22;9435;52.122;5.502;2023-03-01T05:07:56;-3.40;99.90
18611;DHT22;9435;52.122;5.502;2023-03-01T05:10:24;-3.30;99.90
18611;DHT22;9435;52.122;5.502;2023-03-01T05:12:51;-3.30;99.90
18611;DHT22;9435;52.122;5.502;2023-03-01T05:15:19;-3.30;99.90
18611;DHT22;9435;52.122;5.502;2023-03-01T05:17:48;-3.30;99.90
18611;DHT22;9435;52.122;5.502;2023-03-01T05:20:15;-3.30;99.90
18611;DHT22;9435;52.122;5.502;2023-03-01T05:22:43;-3.30;99.90
18611;DHT22;9435;52.122;5.502;2023-03-01T05:25:10;-3.30;99.90
18611;DHT22;9435;52.122;5.502;2023-03-01T05:27:39;-3.30;99.90
18611;DHT22;9435;52.122;5.502;2023-03-01T05:30:08;-3.30;99.90
18611;DHT22;9435;52.122;5.502;2023-03-01T05:32:43;-3.30;99.90
18611;DHT22;9435;52.122;5.502;2023-03-01T05:35:14;-3.30;99.90
18611;DHT22;9435;52.122;5.502;2023-03-01T05:37:42;-3.30;99.90
18611;DHT22;9435;52.122;5.502;2023-03-01T05:40:11;-3.30;99.90
18611;DHT22;9435;52.122;5.502;2023-03-01T05:42:44;-3.30;99.90
18611;DHT22;9435;52.122;5.502;2023-03-01T05:45:12;-3.30;99.90
18611;DHT22;9435;52.122;5.502;2023-03-01T05:47:41;-3.40;99.90
18611;DHT22;9435;52.122;5.502;2023-03-01T05:50:13;-3.50;99.90
18611;DHT22;9435;52.122;5.502;2023-03-01T05:52:45;-3.60;99.90
18611;DHT22;9435;52.122;5.502;2023-03-01T05:55:12;-3.60;99.90
18611;DHT22;9435;52.122;5.502;2023-03-01T05:57:40;-3.50;99.90
18611;DHT22;9435;52.122;5.502;2023-03-01T06:00:08;-3.50;99.90
18611;DHT22;9435;52.122;5.502;2023-03-01T06:02:35;-3.50;99.90
18611;DHT22;9435;52.122;5.502;2023-03-01T06:05:04;-3.40;99.90
18611;DHT22;9435;52.122;5.502;2023-03-01T06:07:33;-3.40;99.90
18611;DHT22;9435;52.122;5.502;2023-03-01T06:10:00;-3.40;99.90
18611;DHT22;9435;52.122;5.502;2023-03-01T06:12:30;-3.40;99.90
18611;DHT22;9435;52.122;5.502;2023-03-01T06:14:58;-3.40;99.90
18611;DHT22;9435;52.122;5.502;2023-03-01T06:17:26;-3.60;99.90
18611;DHT22;9435;52.122;5.502;2023-03-01T06:19:55;-3.60;99.90
18611;DHT22;9435;52.122;5.502;2023-03-01T06:22:22;-3.70;99.90
18611;DHT22;9435;52.122;5.502;2023-03-01T06:24:51;-3.60;99.90
18611;DHT22;9435;52.122;5.502;2023-03-01T06:27:18;-3.60;99.90
18611;DHT22;9435;52.122;5.502;2023-03-01T06:29:45;-3.50;99.90
18611;DHT22;9435;52.122;5.502;2023-03-01T06:32:12;-3.50;99.90
18611;DHT22;9435;52.122;5.502;2023-03-01T06:34:40;-3.50;99.90
18611;DHT22;9435;52.122;5.502;2023-03-01T06:37:07;-3.50;99.90
18611;DHT22;9435;52.122;5.502;2023-03-01T06:39:34;-3.50;99.90
18611;DHT22;9435;52.122;5.502;2023-03-01T06:42:04;-3.40;99.90
18611;DHT22;9435;52.122;5.502;2023-03-01T06:44:31;-3.50;99.90
18611;DHT22;9435;52.122;5.502;2023-03-01T06:46:58;-3.60;99.90
18611;DHT22;9435;52.122;5.502;2023-03-01T06:49:25;-3.60;99.90
18611;DHT22;9435;52.122;5.502;2023-03-01T06:51:52;-3.60;99.90
18611;DHT22;9435;52.122;5.502;2023-03-01T06:54:19;-3.50;99.90
18611;DHT22;9435;52.122;5.502;2023-03-01T06:56:48;-3.50;99.90
18611;DHT22;9435;52.122;5.502;2023-03-01T06:59:17;-3.50;99.90
18611;DHT22;9435;52.122;5.502;2023-03-01T07:01:45;-3.40;99.90
18611;DHT22;9435;52.122;5.502;2023-03-01T07:04:13;-3.50;99.90
18611;DHT22;9435;52.122;5.502;2023-03-01T07:06:40;-3.50;99.90
18611;DHT22;9435;52.122;5.502;2023-03-01T07:09:07;-3.60;99.90
18611;DHT22;9435;52.122;5.502;2023-03-01T07:11:35;-3.60;99.90
18611;DHT22;9435;52.122;5.502;2023-03-01T07:14:02;-3.50;99.90
18611;DHT22;9435;52.122;5.502;2023-03-01T07:16:30;-3.40;99.90
18611;DHT22;9435;52.122;5.502;2023-03-01T07:18:58;-3.30;99.90
18611;DHT22;9435;52.122;5.502;2023-03-01T07:21:25;-3.10;99.90
18611;DHT22;9435;52.122;5.502;2023-03-01T07:23:52;-3.10;99.90
18611;DHT22;9435;52.122;5.502;2023-03-01T07:26:19;-3.00;99.90
18611;DHT22;9435;52.122;5.502;2023-03-01T07:28:46;-2.80;99.90
18611;DHT22;9435;52.122;5.502;2023-03-01T07:31:13;-2.70;99.90
18611;DHT22;9435;52.122;5.502;2023-03-01T07:33:42;-2.50;99.90
18611;DHT22;9435;52.122;5.502;2023-03-01T07:36:09;-2.40;99.90
18611;DHT22;9435;52.122;5.502;2023-03-01T07:38:36;-2.20;99.90
18611;DHT22;9435;52.122;5.502;2023-03-01T07:41:04;-2.10;99.90
18611;DHT22;9435;52.122;5.502;2023-03-01T07:43:31;-1.90;99.90
18611;DHT22;9435;52.122;5.502;2023-03-01T07:45:59;-1.70;99.90
18611;DHT22;9435;52.122;5.502;2023-03-01T07:48:27;-1.60;99.90
18611;DHT22;9435;52.122;5.502;2023-03-01T07:51:36;-1.40;99.90
18611;DHT22;9435;52.122;5.502;2023-03-01T07:53:52;-1.20;99.90
18611;DHT22;9435;52.122;5.502;2023-03-01T07:56:19;-1.10;99.90
18611;DHT22;9435;52.122;5.502;2023-03-01T07:58:48;-1.00;99.90
18611;DHT22;9435;52.122;5.502;2023-03-01T08:01:16;-0.80;99.90
18611;DHT22;9435;52.122;5.502;2023-03-01T08:03:44;-0.60;99.90
18611;DHT22;9435;52.122;5.502;2023-03-01T08:06:14;-0.50;99.90
18611;DHT22;9435;52.122;5.502;2023-03-01T08:08:41;-0.40;99.90
18611;DHT22;9435;52.122;5.502;2023-03-01T08:11:11;-0.20;99.90
18611;DHT22;9435;52.122;5.502;2023-03-01T08:13:39;-0.20;99.90
18611;DHT22;9435;52.122;5.502;2023-03-01T08:16:07;-0.10;99.90
18611;DHT22;9435;52.122;5.502;2023-03-01T08:18:35;0.00;99.90
18611;DHT22;9435;52.122;5.502;2023-03-01T08:21:06;0.00;99.90
18611;DHT22;9435;52.122;5.502;2023-03-01T08:23:35;0.20;99.90
18611;DHT22;9435;52.122;5.502;2023-03-01T08:26:06;0.40;99.90
18611;DHT22;9435;52.122;5.502;2023-03-01T08:28:33;0.60;99.90
18611;DHT22;9435;52.122;5.502;2023-03-01T08:31:01;0.70;99.90
18611;DHT22;9435;52.122;5.502;2023-03-01T08:33:28;0.90;99.90
18611;DHT22;9435;52.122;5.502;2023-03-01T08:36:03;1.00;99.90
18611;DHT22;9435;52.122;5.502;2023-03-01T08:38:30;1.10;99.90
18611;DHT22;9435;52.122;5.502;2023-03-01T08:41:01;1.30;99.90
18611;DHT22;9435;52.122;5.502;2023-03-01T08:43:28;1.40;99.90
18611;DHT22;9435;52.122;5.502;2023-03-01T08:45:55;1.60;99.90
18611;DHT22;9435;52.122;5.502;2023-03-01T08:48:22;1.80;99.90
18611;DHT22;9435;52.122;5.502;2023-03-01T08:50:49;1.90;99.90
18611;DHT22;9435;52.122;5.502;2023-03-01T08:53:16;2.00;99.90
18611;DHT22;9435;52.122;5.502;2023-03-01T08:55:44;2.20;99.90
18611;DHT22;9435;52.122;5.502;2023-03-01T08:58:12;2.40;99.90
18611;DHT22;9435;52.122;5.502;2023-03-01T09:00:40;2.40;99.90
18611;DHT22;9435;52.122;5.502;2023-03-01T09:03:07;2.60;99.90
18611;DHT22;9435;52.122;5.502;2023-03-01T09:05:34;2.70;99.90
18611;DHT22;9435;52.122;5.502;2023-03-01T09:08:02;2.90;99.90
18611;DHT22;9435;52.122;5.502;2023-03-01T09:10:29;2.90;99.90
18611;DHT22;9435;52.122;5.502;2023-03-01T09:12:56;3.20;99.90
18611;DHT22;9435;52.122;5.502;2023-03-01T09:15:24;3.20;99.90
18611;DHT22;9435;52.122;5.502;2023-03-01T09:17:51;3.40;99.90
18611;DHT22;9435;52.122;5.502;2023-03-01T09:20:18;3.40;99.90
18611;DHT22;9435;52.122;5.502;2023-03-01T09:22:46;3.50;99.90
18611;DHT22;9435;52.122;5.502;2023-03-01T09:25:13;3.60;99.90
18611;DHT22;9435;52.122;5.502;2023-03-01T09:27:40;3.70;99.90
18611;DHT22;9435;52.122;5.502;2023-03-01T09:30:08;3.80;99.90
18611;DHT22;9435;52.122;5.502;2023-03-01T09:32:37;3.90;99.90
18611;DHT22;9435;52.122;5.502;2023-03-01T09:35:08;3.90;99.90
18611;DHT22;9435;52.122;5.502;2023-03-01T09:37:36;3.90;99.90
18611;DHT22;9435;52.122;5.502;2023-03-01T09:40:05;4.00;99.90
18611;DHT22;9435;52.122;5.502;2023-03-01T09:42:34;4.00;99.90
18611;DHT22;9435;52.122;5.502;2023-03-01T09:45:04;4.10;99.90
18611;DHT22;9435;52.122;5.502;2023-03-01T09:47:33;4.30;99.90
18611;DHT22;9435;52.122;5.502;2023-03-01T09:50:08;4.40;99.90
18611;DHT22;9435;52.122;5.502;2023-03-01T09:52:39;4.50;99.90
18611;DHT22;9435;52.122;5.502;2023-03-01T09:55:13;4.50;99.90
18611;DHT22;9435;52.122;5.502;2023-03-01T09:57:46;4.60;99.90
18611;DHT22;9435;52.122;5.502;2023-03-01T10:00:24;4.60;99.90
18611;DHT22;9435;52.122;5.502;2023-03-01T10:02:59;4.80;99.90
18611;DHT22;9435;52.122;5.502;2023-03-01T10:05:41;4.70;99.90
18611;DHT22;9435;52.122;5.502;2023-03-01T10:08:38;4.70;99.90
18611;DHT22;9435;52.122;5.502;2023-03-01T10:11:19;4.80;99.90
18611;DHT22;9435;52.122;5.502;2023-03-01T10:13:50;5.00;99.90
18611;DHT22;9435;52.122;5.502;2023-03-01T10:16:24;5.00;99.90
18611;DHT22;9435;52.122;5.502;2023-03-01T10:18:59;5.00;99.90
18611;DHT22;9435;52.122;5.502;2023-03-01T10:21:28;5.20;99.90
18611;DHT22;9435;52.122;5.502;2023-03-01T10:24:01;5.30;99.90
18611;DHT22;9435;52.122;5.502;2023-03-01T10:26:44;5.30;99.90
18611;DHT22;9435;52.122;5.502;2023-03-01T10:29:12;5.30;99.90
18611;DHT22;9435;52.122;5.502;2023-03-01T10:31:42;5.30;99.90
18611;DHT22;9435;52.122;5.502;2023-03-01T10:34:12;5.30;99.90
18611;DHT22;9435;52.122;5.502;2023-03-01T10:36:47;5.10;99.90
18611;DHT22;9435;52.122;5.502;2023-03-01T10:39:17;5.20;99.90
18611;DHT22;9435;52.122;5.502;2023-03-01T10:41:58;5.50;99.90
18611;DHT22;9435;52.122;5.502;2023-03-01T10:44:48;5.40;99.90
18611;DHT22;9435;52.122;5.502;2023-03-01T10:47:19;5.60;99.90
18611;DHT22;9435;52.122;5.502;2023-03-01T10:50:01;5.50;99.90
18611;DHT22;9435;52.122;5.502;2023-03-01T10:52:33;5.50;99.90
18611;DHT22;9435;52.122;5.502;2023-03-01T10:55:03;5.70;99.90
18611;DHT22;9435;52.122;5.502;2023-03-01T10:57:40;5.60;99.90
18611;DHT22;9435;52.122;5.502;2023-03-01T11:00:22;5.50;99.90
18611;DHT22;9435;52.122;5.502;2023-03-01T11:03:02;5.80;99.90
18611;DHT22;9435;52.122;5.502;2023-03-01T11:05:29;5.80;99.90
18611;DHT22;9435;52.122;5.502;2023-03-01T11:08:01;5.90;99.90
18611;DHT22;9435;52.122;5.502;2023-03-01T11:10:30;5.80;99.90
18611;DHT22;9435;52.122;5.502;2023-03-01T11:13:08;5.90;99.90
18611;DHT22;9435;52.122;5.502;2023-03-01T11:15:36;5.80;99.90
18611;DHT22;9435;52.122;5.502;2023-03-01T11:18:03;5.80;99.90
18611;DHT22;9435;52.122;5.502;2023-03-01T11:20:32;6.00;99.90
18611;DHT22;9435;52.122;5.502;2023-03-01T11:23:04;6.00;99.90
18611;DHT22;9435;52.122;5.502;2023-03-01T11:25:35;6.20;99.90
18611;DHT22;9435;52.122;5.502;2023-03-01T11:28:05;6.30;99.90
18611;DHT22;9435;52.122;5.502;2023-03-01T11:30:35;6.20;99.90
18611;DHT22;9435;52.122;5.502;2023-03-01T11:33:17;6.10;99.90
18611;DHT22;9435;52.122;5.502;2023-03-01T11:35:49;6.10;99.90
18611;DHT22;9435;52.122;5.502;2023-03-01T11:38:24;6.10;99.90
18611;DHT22;9435;52.122;5.502;2023-03-01T11:40:55;6.10;99.90
18611;DHT22;9435;52.122;5.502;2023-03-01T11:43:32;6.00;99.90
18611;DHT22;9435;52.122;5.502;2023-03-01T11:49:22;6.30;99.90
18611;DHT22;9435;52.122;5.502;2023-03-01T11:51:59;6.40;99.90
18611;DHT22;9435;52.122;5.502;2023-03-01T11:54:40;6.50;99.90
18611;DHT22;9435;52.122;5.502;2023-03-01T11:57:15;6.40;99.90
18611;DHT22;9435;52.122;5.502;2023-03-01T12:00:06;6.40;99.90
18611;DHT22;9435;52.122;5.502;2023-03-01T12:03:05;6.60;99.90
18611;DHT22;9435;52.122;5.502;2023-03-01T12:06:05;6.70;99.90
18611;DHT22;9435;52.122;5.502;2023-03-01T12:08:40;6.50;99.90
18611;DHT22;9435;52.122;5.502;2023-03-01T12:11:20;6.60;99.90
18611;DHT22;9435;52.122;5.502;2023-03-01T12:14:05;6.60;99.90
18611;DHT22;9435;52.122;5.502;2023-03-01T12:16:56;6.60;99.90
18611;DHT22;9435;52.122;5.502;2023-03-01T12:19:37;6.70;99.90
18611;DHT22;9435;52.122;5.502;2023-03-01T12:22:21;6.60;99.90
18611;DHT22;9435;52.122;5.502;2023-03-01T12:25:15;6.80;99.90
18611;DHT22;9435;52.122;5.502;2023-03-01T12:33:48;6.90;99.90
18611;DHT22;9435;52.122;5.502;2023-03-01T12:36:41;6.80;99.90
18611;DHT22;9435;52.122;5.502;2023-03-01T12:39:24;6.80;99.90
18611;DHT22;9435;52.122;5.502;2023-03-01T12:42:00;6.80;99.90
18611;DHT22;9435;52.122;5.502;2023-03-01T12:44:44;6.90;99.90
18611;DHT22;9435;52.122;5.502;2023-03-01T12:47:31;6.80;99.90
18611;DHT22;9435;52.122;5.502;2023-03-01T12:50:03;7.10;99.90
18611;DHT22;9435;52.122;5.502;2023-03-01T12:52:37;6.90;99.90
18611;DHT22;9435;52.122;5.502;2023-03-01T12:55:14;6.90;99.90
18611;DHT22;9435;52.122;5.502;2023-03-01T12:57:49;7.00;99.90
18611;DHT22;9435;52.122;5.502;2023-03-01T13:00:26;6.90;99.90
18611;DHT22;9435;52.122;5.502;2023-03-01T13:03:00;7.00;99.90
18611;DHT22;9435;52.122;5.502;2023-03-01T13:05:37;7.00;99.90
18611;DHT22;9435;52.122;5.502;2023-03-01T13:08:10;7.00;99.90
18611;DHT22;9435;52.122;5.502;2023-03-01T13:10:43;7.00;99.90
18611;DHT22;9435;52.122;5.502;2023-03-01T13:13:18;6.90;99.90
18611;DHT22;9435;52.122;5.502;2023-03-01T13:15:46;6.80;99.90
18611;DHT22;9435;52.122;5.502;2023-03-01T13:18:42;6.80;99.90
18611;DHT22;9435;52.122;5.502;2023-03-01T13:21:09;7.00;99.90
18611;DHT22;9435;52.122;5.502;2023-03-01T13:23:38;7.10;99.90
18611;DHT22;9435;52.122;5.502;2023-03-01T13:26:13;7.10;99.90
18611;DHT22;9435;52.122;5.502;2023-03-01T13:28:49;7.20;99.90
18611;DHT22;9435;52.122;5.502;2023-03-01T13:34:50;7.20;99.90
18611;DHT22;9435;52.122;5.502;2023-03-01T13:37:25;7.30;99.90
18611;DHT22;9435;52.122;5.502;2023-03-01T13:39:56;7.20;99.90
18611;DHT22;9435;52.122;5.502;2023-03-01T13:42:43;7.00;99.90
18611;DHT22;9435;52.122;5.502;2023-03-01T13:45:21;7.00;99.90
18611;DHT22;9435;52.122;5.502;2023-03-01T13:47:54;7.20;99.90
18611;DHT22;9435;52.122;5.502;2023-03-01T13:50:27;7.20;99.90
18611;DHT22;9435;52.122;5.502;2023-03-01T13:52:57;7.10;99.90
18611;DHT22;9435;52.122;5.502;2023-03-01T13:55:30;7.10;99.90
18611;DHT22;9435;52.122;5.502;2023-03-01T13:58:01;7.10;99.90
18611;DHT22;9435;52.122;5.502;2023-03-01T14:00:36;7.20;99.90
18611;DHT22;9435;52.122;5.502;2023-03-01T14:03:08;7.30;99.90
18611;DHT22;9435;52.122;5.502;2023-03-01T14:05:37;7.20;99.90
18611;DHT22;9435;52.122;5.502;2023-03-01T14:08:14;7.20;99.90
18611;DHT22;9435;52.122;5.502;2023-03-01T14:11:00;7.20;99.90
18611;DHT22;9435;52.122;5.502;2023-03-01T14:13:39;7.20;99.90
18611;DHT22;9435;52.122;5.502;2023-03-01T14:16:19;7.10;99.90
18611;DHT22;9435;52.122;5.502;2023-03-01T14:18:55;7.20;99.90
18611;DHT22;9435;52.122;5.502;2023-03-01T14:21:29;7.20;99.90
18611;DHT22;9435;52.122;5.502;2023-03-01T14:23:57;7.20;99.90
18611;DHT22;9435;52.122;5.502;2023-03-01T14:26:24;7.20;99.90
18611;DHT22;9435;52.122;5.502;2023-03-01T14:28:52;7.20;99.90
18611;DHT22;9435;52.122;5.502;2023-03-01T14:31:35;7.30;99.90
18611;DHT22;9435;52.122;5.502;2023-03-01T14:34:03;7.20;99.90
18611;DHT22;9435;52.122;5.502;2023-03-01T14:36:33;7.20;99.90
18611;DHT22;9435;52.122;5.502;2023-03-01T14:39:01;7.20;99.90
18611;DHT22;9435;52.122;5.502;2023-03-01T14:41:34;7.20;99.90
18611;DHT22;9435;52.122;5.502;2023-03-01T14:44:05;7.20;99.90
18611;DHT22;9435;52.122;5.502;2023-03-01T14:46:35;7.30;99.90
18611;DHT22;9435;52.122;5.502;2023-03-01T14:49:05;7.30;99.90
18611;DHT22;9435;52.122;5.502;2023-03-01T14:51:37;7.30;99.90
18611;DHT22;9435;52.122;5.502;2023-03-01T14:54:13;7.30;99.90
18611;DHT22;9435;52.122;5.502;2023-03-01T14:56:47;7.30;99.90
18611;DHT22;9435;52.122;5.502;2023-03-01T14:59:14;7.40;99.90
18611;DHT22;9435;52.122;5.502;2023-03-01T15:01:42;7.30;99.90
18611;DHT22;9435;52.122;5.502;2023-03-01T15:04:12;7.30;99.90
18611;DHT22;9435;52.122;5.502;2023-03-01T15:06:42;7.20;99.90
18611;DHT22;9435;52.122;5.502;2023-03-01T15:09:14;7.20;99.90
18611;DHT22;9435;52.122;5.502;2023-03-01T15:11:43;7.20;99.90
18611;DHT22;9435;52.122;5.502;2023-03-01T15:14:41;7.20;99.90
18611;DHT22;9435;52.122;5.502;2023-03-01T15:17:20;7.20;99.90
18611;DHT22;9435;52.122;5.502;2023-03-01T15:19:48;7.30;99.90
18611;DHT22;9435;52.122;5.502;2023-03-01T15:22:17;7.30;99.90
18611;DHT22;9435;52.122;5.502;2023-03-01T15:24:47;7.20;99.90
18611;DHT22;9435;52.122;5.502;2023-03-01T15:27:17;7.20;99.90
18611;DHT22;9435;52.122;5.502;2023-03-01T15:29:49;7.20;99.90
18611;DHT22;9435;52.122;5.502;2023-03-01T15:32:29;7.20;99.90
18611;DHT22;9435;52.122;5.502;2023-03-01T15:34:57;7.10;99.90
18611;DHT22;9435;52.122;5.502;2023-03-01T15:37:43;7.10;99.90
18611;DHT22;9435;52.122;5.502;2023-03-01T15:40:21;7.10;99.90
18611;DHT22;9435;52.122;5.502;2023-03-01T15:42:50;7.10;99.90
18611;DHT22;9435;52.122;5.502;2023-03-01T15:45:23;7.10;99.90
18611;DHT22;9435;52.122;5.502;2023-03-01T15:47:53;7.10;99.90
18611;DHT22;9435;52.122;5.502;2023-03-01T15:50:24;7.00;99.90
18611;DHT22;9435;52.122;5.502;2023-03-01T15:52:55;7.00;99.90
18611;DHT22;9435;52.122;5.502;2023-03-01T15:55:24;7.00;99.90
18611;DHT22;9435;52.122;5.502;2023-03-01T15:57:59;6.90;99.90
18611;DHT22;9435;52.122;5.502;2023-03-01T16:00:27;6.90;99.90
18611;DHT22;9435;52.122;5.502;2023-03-01T16:02:56;7.00;99.90
18611;DHT22;9435;52.122;5.502;2023-03-01T16:05:25;6.90;99.90
18611;DHT22;9435;52.122;5.502;2023-03-01T16:07:55;6.90;99.90
18611;DHT22;9435;52.122;5.502;2023-03-01T16:10:22;6.90;99.90
18611;DHT22;9435;52.122;5.502;2023-03-01T16:12:50;6.80;99.90
18611;DHT22;9435;52.122;5.502;2023-03-01T16:15:20;6.70;99.90
18611;DHT22;9435;52.122;5.502;2023-03-01T16:17:47;6.70;99.90
18611;DHT22;9435;52.122;5.502;2023-03-01T16:20:15;6.60;99.90
18611;DHT22;9435;52.122;5.502;2023-03-01T16:22:42;6.60;99.90
18611;DHT22;9435;52.122;5.502;2023-03-01T16:25:11;6.50;99.90
18611;DHT22;9435;52.122;5.502;2023-03-01T16:27:41;6.50;99.90
18611;DHT22;9435;52.122;5.502;2023-03-01T16:30:10;6.50;99.90
18611;DHT22;9435;52.122;5.502;2023-03-01T16:32:38;6.40;99.90